Time;durP1;ratioP1;P1;durP2;ratioP2;P2;SDS_P1;SDS_P2;PMS_P1;PMS_P2;Temp;Humidity;BMP_temperature;BMP_pressure;BME280_temperature;BME280_humidity;BME280_pressure;Samples;Min_cycle;Max_cycle;Signal;HPM_P1;HPM_P2
2021/12/15 00:01:35;;;;;;;2.80;2.60;;;6.40;93.80;5.70;99572.00;;;;5115690;28;20525;-71
2021/12/15 00:04:03;;;;;;;2.87;2.63;;;6.40;93.00;5.70;99574.00;;;;5116061;28;20181;-71
2021/12/15 00:06:31;;;;;;;4.07;3.47;;;6.40;93.10;5.70;99565.00;;;;5115844;28;20220;-71
2021/12/15 00:09:00;;;;;;;3.80;2.30;;;6.40;93.10;5.70;99568.00;;;;5116000;28;20225;-71
2021/12/15 00:11:35;;;;;;;2.53;2.43;;;6.50;93.20;5.70;99563.00;;;;5115880;28;20198;-72
2021/12/15 00:14:05;;;;;;;4.70;3.93;;;6.40;93.10;5.70;99560.00;;;;5115790;28;20650;-71
2021/12/15 00:16:32;;;;;;;2.77;2.57;;;6.50;93.30;5.70;99557.00;;;;5115674;28;20300;-71
2021/12/15 00:19:00;;;;;;;2.30;2.17;;;6.50;93.50;5.70;99569.00;;;;5115718;28;20197;-72
2021/12/15 00:21:26;;;;;;;1.80;1.70;;;6.50;93.30;5.70;99571.00;;;;5097651;28;20277;-71
2021/12/15 00:23:53;;;;;;;3.87;3.23;;;6.40;93.20;5.60;99568.00;;;;5115610;28;20214;-71
2021/12/15 00:26:20;;;;;;;4.17;3.83;;;6.50;93.20;5.60;99570.00;;;;5115462;28;20533;-72
2021/12/15 00:28:49;;;;;;;2.67;2.47;;;6.50;93.40;5.60;99572.00;;;;5115441;28;20237;-70
2021/12/15 00:31:17;;;;;;;4.13;3.63;;;6.40;93.30;5.60;99575.00;;;;5115604;28;20208;-73
2021/12/15 00:33:44;;;;;;;7.27;1.97;;;6.40;93.40;5.60;99575.00;;;;5115585;28;20224;-71
2021/12/15 00:36:14;;;;;;;7.40;3.87;;;6.40;93.40;5.70;99565.00;;;;5115295;28;20224;-71
2021/12/15 00:38:43;;;;;;;1.97;1.87;;;6.40;93.40;5.70;99575.00;;;;5115453;28;20284;-72
2021/12/15 00:41:10;;;;;;;5.40;2.93;;;6.50;93.60;5.70;99576.00;;;;5115400;28;20260;-71
2021/12/15 00:43:37;;;;;;;2.40;2.27;;;6.50;93.60;5.70;99576.00;;;;5115422;28;20191;-72
2021/12/15 00:46:06;;;;;;;2.57;2.40;;;6.50;93.60;5.70;99574.00;;;;5115369;28;20217;-71
2021/12/15 00:48:34;;;;;;;2.23;2.13;;;6.50;93.40;5.70;99583.00;;;;5114951;28;20222;-70
2021/12/15 00:51:01;;;;;;;4.67;3.10;;;6.50;93.30;5.70;99568.00;;;;5115353;28;20300;-71
2021/12/15 00:53:28;;;;;;;2.30;2.13;;;6.50;93.20;5.80;99592.00;;;;5097333;28;20588;-70
2021/12/15 00:55:54;;;;;;;3.30;3.07;;;6.50;93.30;5.80;99588.00;;;;5115138;28;20354;-71
2021/12/15 00:58:22;;;;;;;3.70;2.90;;;6.50;93.20;5.70;99585.00;;;;5115116;28;20207;-71
2021/12/15 01:00:52;;;;;;;5.67;4.33;;;6.50;93.10;5.80;99585.00;;;;5115100;28;20313;-71
2021/12/15 01:03:20;;;;;;;2.40;2.30;;;6.50;93.10;5.70;99583.00;;;;5115054;28;20327;-71
2021/12/15 01:05:50;;;;;;;3.43;3.23;;;6.50;93.00;5.80;99578.00;;;;5097079;28;20308;-72
2021/12/15 01:08:22;;;;;;;2.17;2.03;;;6.50;93.00;5.70;99582.00;;;;5114851;28;20226;-71
2021/12/15 01:11:04;;;;;;;5.43;2.83;;;6.50;92.90;5.80;99576.00;;;;5097341;28;20522;-71
2021/12/15 01:21:57;;;;;;;3.47;3.20;;;6.50;93.10;5.70;99572.00;;;;5114672;28;20244;-72
2021/12/15 01:24:24;;;;;;;2.90;2.80;;;6.50;93.10;5.70;99576.00;;;;5114635;28;20296;-72
2021/12/15 01:26:51;;;;;;;11.17;3.90;;;6.50;93.90;5.70;99582.00;;;;5114635;28;20226;-72
2021/12/15 01:29:18;;;;;;;6.37;5.47;;;6.50;93.20;5.70;99581.00;;;;5114537;28;20533;-72
2021/12/15 01:31:45;;;;;;;3.13;2.77;;;6.50;93.30;5.70;99583.00;;;;5114574;28;20198;-72
2021/12/15 01:34:12;;;;;;;3.70;3.27;;;6.40;93.30;5.70;99584.00;;;;5114587;28;20275;-72
2021/12/15 01:36:42;;;;;;;5.63;3.67;;;6.50;93.60;5.70;99592.00;;;;5114729;28;20198;-72
2021/12/15 01:39:09;;;;;;;9.80;5.93;;;6.50;93.60;5.70;99583.00;;;;5096795;28;20237;-72
2021/12/15 01:41:36;;;;;;;2.97;2.73;;;6.50;93.50;5.60;99593.00;;;;5114580;28;20232;-71
2021/12/15 01:47:00;;;;;;;11.90;3.20;;;6.40;93.70;5.70;99585.00;;;;5113475;28;20225;-72
2021/12/15 01:49:37;;;;;;;6.10;3.23;;;6.40;93.60;5.60;99588.00;;;;5114372;28;20267;-71
2021/12/15 01:52:16;;;;;;;3.30;3.10;;;6.40;93.60;5.60;99590.00;;;;5114385;28;20554;-72
2021/12/15 01:54:46;;;;;;;2.67;2.57;;;6.40;93.80;5.60;99597.00;;;;5114348;28;20233;-71
2021/12/15 01:57:15;;;;;;;6.10;4.47;;;6.40;93.90;5.60;99589.00;;;;5114496;28;20235;-72
2021/12/15 01:59:45;;;;;;;4.23;3.93;;;6.40;93.90;5.60;99589.00;;;;5114349;28;20206;-72
2021/12/15 02:02:12;;;;;;;4.23;3.90;;;6.40;94.00;5.70;99593.00;;;;5117115;28;20233;-72
2021/12/15 02:04:40;;;;;;;5.33;4.80;;;6.50;94.80;5.50;99588.00;;;;5118086;28;20327;-71
2021/12/15 02:07:12;;;;;;;2.67;2.47;;;6.50;94.00;5.70;99596.00;;;;5117834;28;20228;-72
2021/12/15 02:12:25;;;;;;;3.47;2.93;;;6.50;93.80;5.60;99584.00;;;;5116564;28;20756;-72
2021/12/15 02:14:53;;;;;;;3.33;3.03;;;6.40;93.70;5.60;99593.00;;;;5117731;28;20750;-71
2021/12/15 02:17:22;;;;;;;5.37;3.60;;;6.40;93.80;5.60;99591.00;;;;5117635;28;20288;-71
2021/12/15 02:19:49;;;;;;;3.03;2.40;;;6.40;93.90;5.60;99582.00;;;;5117753;28;20274;-72
2021/12/15 02:22:20;;;;;;;3.13;1.97;;;6.40;93.80;5.60;99585.00;;;;5117542;28;20238;-71
2021/12/15 02:24:50;;;;;;;4.03;3.43;;;6.40;93.90;5.60;99582.00;;;;5117576;28;20291;-72
2021/12/15 02:27:18;;;;;;;2.00;1.90;;;6.40;93.90;5.60;99586.00;;;;5117664;28;20277;-72
2021/12/15 02:29:49;;;;;;;2.90;2.70;;;6.40;94.00;5.60;99586.00;;;;5117479;28;20203;-73
2021/12/15 02:32:28;;;;;;;2.67;2.50;;;6.40;94.10;5.60;99579.00;;;;5117483;28;20643;-72
2021/12/15 02:37:03;;;;;;;2.50;2.30;;;6.40;94.00;5.70;99593.00;;;;5117361;28;20231;-72
2021/12/15 02:37:44;;;;;;;3.63;3.33;;;6.40;94.00;5.70;99563.00;;;;5117371;28;20214;-72
2021/12/15 02:40:18;;;;;;;3.33;3.10;;;6.40;94.00;5.50;99593.00;;;;5117339;28;20283;-72
2021/12/15 02:42:48;;;;;;;4.33;3.80;;;6.50;94.00;5.70;99595.00;;;;5099497;28;20202;-72
2021/12/15 02:45:22;;;;;;;11.37;4.43;;;6.40;93.90;5.60;99584.00;;;;5117195;28;20314;-72
2021/12/15 02:47:51;;;;;;;2.90;2.70;;;6.40;93.90;5.60;99586.00;;;;5099252;28;20225;-72
2021/12/15 02:50:23;;;;;;;3.93;3.63;;;6.40;94.00;5.60;99542.00;;;;5099218;28;20617;-72
2021/12/15 02:52:52;;;;;;;2.83;2.63;;;6.40;94.00;5.60;99580.00;;;;5099261;28;20669;-72
2021/12/15 02:55:19;;;;;;;7.30;4.40;;;6.40;93.90;5.70;99568.00;;;;5116946;28;20231;-71
2021/12/15 02:57:48;;;;;;;2.70;2.50;;;6.40;94.00;5.60;99575.00;;;;5116994;28;20194;-72
2021/12/15 03:00:18;;;;;;;10.80;3.47;;;6.40;93.90;5.60;99577.00;;;;5117085;28;20246;-71
2021/12/15 03:05:44;;;;;;;10.10;2.83;;;6.50;94.90;5.70;99589.00;;;;5115160;28;20558;-72
2021/12/15 03:08:15;;;;;;;2.10;2.00;;;6.50;94.20;5.70;99577.00;;;;5116813;28;20224;-72
2021/12/15 03:16:28;;;;;;;5.47;3.17;;;6.50;94.20;5.70;99597.00;;;;5103901;28;20230;-72
2021/12/15 03:18:57;;;;;;;4.23;3.93;;;6.50;94.30;5.70;99600.00;;;;5116761;28;20198;-72
2021/12/15 03:21:26;;;;;;;3.43;3.23;;;6.50;94.30;5.70;99604.00;;;;5116628;28;20347;-72
2021/12/15 03:24:02;;;;;;;6.00;4.47;;;6.50;94.30;5.70;99605.00;;;;5116809;28;20206;-72
2021/12/15 03:26:36;;;;;;;6.20;5.40;;;6.50;94.30;5.70;99603.00;;;;5116551;28;20233;-72
2021/12/15 03:34:49;;;;;;;3.10;2.67;;;6.50;94.30;5.70;99568.00;;;;5116417;28;20228;-71
2021/12/15 03:37:23;;;;;;;2.03;1.93;;;6.50;94.40;5.70;99593.00;;;;5098559;28;20571;-73
2021/12/15 03:39:57;;;;;;;2.70;2.50;;;6.50;94.30;5.60;99599.00;;;;5098498;28;20222;-72
2021/12/15 03:42:30;;;;;;;9.37;6.17;;;6.50;94.40;5.70;99598.00;;;;5116418;28;20269;-71
2021/12/15 03:45:01;;;;;;;4.40;4.00;;;6.50;94.60;5.70;99588.00;;;;5116338;28;20205;-72
2021/12/15 03:47:32;;;;;;;2.10;2.00;;;6.40;94.60;5.70;99593.00;;;;5116310;28;21044;-72
2021/12/15 03:50:00;;;;;;;5.57;3.40;;;6.50;94.80;5.70;99598.00;;;;5098497;28;20276;-72
2021/12/15 03:52:27;;;;;;;7.23;3.83;;;6.40;95.50;5.70;99596.00;;;;5116126;28;20643;-72
2021/12/15 03:54:55;;;;;;;2.53;2.43;;;6.50;94.80;5.70;99593.00;;;;5116152;28;20230;-72
2021/12/15 03:57:22;;;;;;;3.57;3.37;;;6.40;94.80;5.60;99600.00;;;;5116115;28;20311;-71
2021/12/15 03:59:49;;;;;;;3.77;3.53;;;6.40;94.60;5.60;99596.00;;;;5116034;28;20193;-72
2021/12/15 04:02:19;;;;;;;3.07;2.87;;;6.40;94.60;5.60;99597.00;;;;5116044;28;20284;-72
2021/12/15 04:04:48;;;;;;;2.40;2.20;;;6.40;94.80;5.60;99595.00;;;;5116068;28;20488;-71
2021/12/15 04:07:20;;;;;;;5.17;3.67;;;6.40;94.80;5.60;99605.00;;;;5115885;28;20241;-72
2021/12/15 04:09:49;;;;;;;4.00;3.70;;;6.40;95.00;5.60;99605.00;;;;5116048;28;20211;-72
2021/12/15 04:12:16;;;;;;;3.30;2.90;;;6.40;95.20;5.70;99604.00;;;;5115837;28;20211;-72
2021/12/15 04:14:44;;;;;;;5.10;3.13;;;6.40;95.20;5.70;99606.00;;;;5097876;28;20287;-72
2021/12/15 04:17:26;;;;;;;1.30;1.27;;;6.50;95.30;5.70;99557.00;;;;5115853;28;20216;-72
2021/12/15 04:19:57;;;;;;;1.87;1.80;;;6.50;95.30;5.70;99603.00;;;;5115741;28;20284;-72
2021/12/15 04:22:24;;;;;;;2.63;2.47;;;6.50;95.10;5.70;99608.00;;;;5115681;28;20208;-72
2021/12/15 04:24:52;;;;;;;4.20;3.80;;;6.50;95.00;5.70;99597.00;;;;5115104;28;20223;-72
2021/12/15 04:27:20;;;;;;;4.60;2.97;;;6.50;94.90;5.70;99604.00;;;;5115457;28;20676;-72
2021/12/15 04:29:47;;;;;;;1.37;1.27;;;6.50;94.90;5.70;99601.00;;;;5115675;28;20685;-72
2021/12/15 04:32:23;;;;;;;3.17;2.33;;;6.50;94.80;5.70;99609.00;;;;5115515;28;20252;-72
2021/12/15 04:34:49;;;;;;;3.90;3.60;;;6.50;94.70;5.70;99616.00;;;;5115421;28;20247;-72
2021/12/15 04:37:16;;;;;;;3.13;2.93;;;6.50;94.80;5.70;99618.00;;;;5115463;28;20574;-71
2021/12/15 04:39:43;;;;;;;2.23;2.03;;;6.50;94.90;5.70;99611.00;;;;5115438;28;20504;-71
2021/12/15 04:42:11;;;;;;;1.67;1.57;;;6.50;94.80;5.70;99591.00;;;;5115274;28;20224;-71
2021/12/15 04:44:39;;;;;;;1.20;1.20;;;6.50;94.70;5.70;99616.00;;;;5115263;28;20202;-71
2021/12/15 04:47:11;;;;;;;2.00;1.90;;;6.50;94.70;5.70;99604.00;;;;5115154;28;20214;-71
2021/12/15 04:49:42;;;;;;;2.70;2.50;;;6.50;94.70;5.70;99617.00;;;;5115289;28;20275;-73
2021/12/15 04:52:11;;;;;;;2.17;2.07;;;6.50;94.70;5.70;99615.00;;;;5115294;28;20239;-71
2021/12/15 04:54:39;;;;;;;1.97;1.87;;;6.50;94.90;5.70;99612.00;;;;5115056;28;20298;-71
2021/12/15 04:57:09;;;;;;;2.40;2.20;;;6.50;94.80;5.70;99612.00;;;;5115186;28;20201;-71
2021/12/15 04:59:40;;;;;;;3.13;2.73;;;6.50;94.70;5.70;99615.00;;;;5115128;28;20222;-71
2021/12/15 05:02:09;;;;;;;3.73;3.40;;;6.50;94.70;5.70;99609.00;;;;5114955;28;20220;-71
2021/12/15 05:04:36;;;;;;;1.97;1.87;;;6.50;94.80;5.70;99605.00;;;;5097162;28;20295;-71
2021/12/15 05:07:03;;;;;;;6.00;4.10;;;6.50;94.80;5.70;99608.00;;;;5114809;28;20300;-72
2021/12/15 05:09:33;;;;;;;1.77;1.67;;;6.50;94.80;5.80;99609.00;;;;5114967;28;20205;-72
2021/12/15 05:12:02;;;;;;;3.13;2.83;;;6.60;94.80;5.70;99604.00;;;;5097168;28;20302;-71
2021/12/15 05:14:28;;;;;;;4.30;3.03;;;6.50;94.70;5.70;99612.00;;;;5114726;28;20276;-71
2021/12/15 05:16:56;;;;;;;9.00;2.97;;;6.50;94.50;5.70;99623.00;;;;5114827;28;20186;-71
2021/12/15 05:19:26;;;;;;;2.37;2.17;;;6.50;94.70;5.80;99626.00;;;;5114875;28;20283;-73
2021/12/15 05:21:53;;;;;;;4.17;2.33;;;6.50;94.80;5.80;99625.00;;;;5114634;28;20218;-71
2021/12/15 05:24:30;;;;;;;2.77;2.57;;;6.50;94.60;5.80;99625.00;;;;5097093;28;20284;-71
2021/12/15 05:27:01;;;;;;;1.87;1.77;;;6.50;95.20;5.80;99625.00;;;;5114548;28;20227;-71
2021/12/15 05:29:28;;;;;;;3.30;3.00;;;6.60;94.40;5.70;99626.00;;;;5114792;28;20204;-71
2021/12/15 05:31:56;;;;;;;3.63;2.17;;;6.50;94.40;5.70;99631.00;;;;5114621;28;20280;-72
2021/12/15 05:34:25;;;;;;;2.80;2.60;;;6.50;94.40;5.80;99627.00;;;;5114580;28;20225;-72
2021/12/15 05:36:54;;;;;;;2.37;2.17;;;6.50;94.40;5.80;99623.00;;;;5095510;28;20672;-72
2021/12/15 05:39:21;;;;;;;1.83;1.73;;;6.60;94.40;5.70;99607.00;;;;5114522;28;20196;-72
2021/12/15 05:41:52;;;;;;;5.43;3.00;;;6.50;95.10;5.70;99632.00;;;;5096577;28;20217;-71
2021/12/15 05:44:24;;;;;;;2.60;2.13;;;6.50;94.40;5.70;99635.00;;;;5114513;28;20201;-72
2021/12/15 05:46:58;;;;;;;3.73;3.10;;;6.50;94.50;5.80;99632.00;;;;5114289;28;20222;-71
2021/12/15 05:49:24;;;;;;;3.00;2.57;;;6.50;94.60;5.70;99636.00;;;;5114365;28;20198;-71
2021/12/15 05:51:51;;;;;;;3.57;3.37;;;6.50;94.50;5.70;99635.00;;;;5114561;28;20198;-71
2021/12/15 05:54:20;;;;;;;4.53;3.93;;;6.50;94.40;5.70;99632.00;;;;5114210;28;20259;-71
2021/12/15 05:56:48;;;;;;;2.40;2.20;;;6.50;94.40;5.70;99611.00;;;;5114247;28;20627;-70
2021/12/15 05:59:15;;;;;;;3.17;2.27;;;6.60;94.50;5.70;99647.00;;;;5114148;28;20261;-71
2021/12/15 06:01:42;;;;;;;20.53;4.33;;;6.50;94.60;5.80;99648.00;;;;5096226;28;20330;-71
2021/12/15 06:04:09;;;;;;;2.37;1.87;;;6.50;94.60;5.80;99653.00;;;;5113958;28;20300;-69
2021/12/15 06:06:38;;;;;;;2.30;2.20;;;6.60;94.60;5.80;99649.00;;;;5114016;28;20307;-70
2021/12/15 06:09:08;;;;;;;4.87;4.27;;;6.60;94.50;5.70;99652.00;;;;5096259;28;20208;-71
2021/12/15 06:11:35;;;;;;;2.50;2.13;;;6.60;94.60;5.80;99658.00;;;;5114089;28;20200;-71
2021/12/15 06:14:02;;;;;;;5.87;3.87;;;6.60;94.50;5.80;99654.00;;;;5114044;28;20303;-71
2021/12/15 06:16:29;;;;;;;4.33;2.50;;;6.60;94.50;5.70;99657.00;;;;5114124;28;20222;-71
2021/12/15 06:18:55;;;;;;;4.53;3.10;;;6.60;94.50;5.70;99650.00;;;;5114091;28;20279;-71
2021/12/15 06:21:23;;;;;;;9.67;3.67;;;6.60;94.50;5.80;99660.00;;;;5095981;28;20315;-71
2021/12/15 06:23:51;;;;;;;3.67;3.33;;;6.50;94.70;5.80;99656.00;;;;5114016;28;20229;-73
2021/12/15 06:26:18;;;;;;;2.00;1.63;;;6.50;94.70;5.80;99623.00;;;;5095842;28;20536;-71
2021/12/15 06:28:47;;;;;;;2.87;2.67;;;6.60;94.50;5.80;99655.00;;;;5095938;28;20293;-71
2021/12/15 06:31:17;;;;;;;2.13;2.03;;;6.60;94.50;5.80;99649.00;;;;5113814;28;20218;-72
2021/12/15 06:33:46;;;;;;;1.73;1.63;;;6.60;94.50;5.80;99657.00;;;;5095704;28;20227;-71
2021/12/15 06:36:20;;;;;;;3.67;3.33;;;6.60;94.40;5.80;99656.00;;;;5113972;28;20209;-71
2021/12/15 06:38:51;;;;;;;4.73;2.70;;;6.60;94.40;5.80;99668.00;;;;5114067;28;20193;-71
2021/12/15 06:41:20;;;;;;;2.77;2.53;;;6.60;94.20;5.80;99661.00;;;;5113703;28;20245;-71
2021/12/15 06:43:56;;;;;;;1.03;1.03;;;6.60;94.10;5.80;99663.00;;;;5113691;28;20264;-70
2021/12/15 06:47:03;;;;;;;2.27;1.77;;;6.60;94.10;5.80;99669.00;;;;5113587;28;20540;-72
2021/12/15 07:00:42;;;;;;;2.47;2.27;;;6.60;93.60;5.80;99679.00;;;;5117066;28;20223;-71
2021/12/15 07:03:09;;;;;;;1.80;1.70;;;6.60;93.20;5.80;99683.00;;;;5099208;28;20566;-70
2021/12/15 07:05:35;;;;;;;0.93;0.93;;;6.60;93.00;5.80;99684.00;;;;5098917;28;20314;-71
2021/12/15 07:08:07;;;;;;;10.83;3.07;;;6.60;92.90;5.80;99686.00;;;;5116900;28;20281;-71
2021/12/15 07:10:40;;;;;;;2.27;2.10;;;6.60;92.80;5.80;99688.00;;;;5116890;28;20632;-71
2021/12/15 07:13:10;;;;;;;0.97;0.97;;;6.60;92.70;5.80;99692.00;;;;5098754;28;20268;-71
2021/12/15 07:15:38;;;;;;;1.70;1.60;;;6.50;92.50;5.80;99700.00;;;;5116742;28;20675;-71
2021/12/15 07:18:09;;;;;;;1.60;1.50;;;6.60;93.30;5.80;99696.00;;;;5116777;28;20351;-71
2021/12/15 07:20:40;;;;;;;1.07;1.07;;;6.60;92.50;5.80;99705.00;;;;5116667;28;20649;-70
2021/12/15 07:23:12;;;;;;;1.97;1.87;;;6.50;92.40;5.80;99712.00;;;;5098650;28;20621;-72
2021/12/15 07:25:43;;;;;;;1.53;1.53;;;6.60;92.50;5.80;99713.00;;;;5116515;28;20256;-72
2021/12/15 07:28:11;;;;;;;1.03;1.03;;;6.60;92.50;5.90;99711.00;;;;5116598;28;20276;-71
2021/12/15 07:30:39;;;;;;;3.63;3.33;;;6.60;92.40;5.90;99711.00;;;;5098442;28;20196;-71
2021/12/15 07:33:11;;;;;;;1.63;1.63;;;6.60;93.00;5.90;99718.00;;;;5116557;28;20253;-73
2021/12/15 07:35:39;;;;;;;1.80;1.70;;;6.70;92.20;5.90;99719.00;;;;5116407;28;20187;-71
2021/12/15 07:38:08;;;;;;;1.63;1.53;;;6.70;92.00;5.90;99731.00;;;;5116394;28;20195;-71
2021/12/15 07:40:37;;;;;;;1.20;1.20;;;6.70;91.90;5.90;99726.00;;;;5116442;28;20288;-71
2021/12/15 07:43:09;;;;;;;4.10;2.90;;;6.70;92.30;5.80;99737.00;;;;5116415;28;20232;-71
2021/12/15 07:45:41;;;;;;;2.40;2.30;;;6.60;91.80;5.90;99730.00;;;;5116139;28;20225;-71
2021/12/15 07:48:14;;;;;;;6.27;2.60;;;6.70;92.70;5.90;99741.00;;;;5116462;28;20299;-72
2021/12/15 07:50:46;;;;;;;1.00;1.00;;;6.60;91.90;5.90;99738.00;;;;5116294;28;20293;-73
2021/12/15 07:53:14;;;;;;;1.77;1.67;;;6.60;91.90;5.90;99740.00;;;;5098347;28;20208;-72
2021/12/15 07:55:41;;;;;;;1.93;1.83;;;6.70;91.80;5.90;99738.00;;;;5116169;28;20198;-72
2021/12/15 07:58:10;;;;;;;1.73;1.63;;;6.70;91.90;5.90;99718.00;;;;5115344;28;20304;-72
2021/12/15 08:00:41;;;;;;;1.97;1.87;;;6.70;92.00;5.90;99742.00;;;;5097945;28;20235;-72
2021/12/15 08:03:08;;;;;;;1.20;1.20;;;6.70;91.90;5.90;99746.00;;;;5116014;28;20383;-72
2021/12/15 08:05:37;;;;;;;1.40;1.30;;;6.70;92.60;5.80;99751.00;;;;5115812;28;20260;-72
2021/12/15 08:08:06;;;;;;;2.67;2.47;;;6.70;91.80;5.90;99753.00;;;;5115794;28;20208;-73
2021/12/15 08:10:34;;;;;;;1.40;1.40;;;6.70;91.70;5.90;99753.00;;;;5115952;28;20226;-73
2021/12/15 08:13:02;;;;;;;2.27;2.07;;;6.70;91.60;5.90;99751.00;;;;5115995;28;20274;-73
2021/12/15 08:15:30;;;;;;;1.53;1.53;;;6.70;91.50;6.00;99725.00;;;;5115830;28;20297;-73
2021/12/15 08:17:56;;;;;;;8.63;2.43;;;6.80;91.60;6.00;99761.00;;;;5115697;28;20233;-73
2021/12/15 08:20:27;;;;;;;1.43;1.43;;;6.80;91.40;6.10;99758.00;;;;5115932;28;20238;-72
2021/12/15 08:22:54;;;;;;;2.47;2.27;;;6.80;91.10;6.10;99751.00;;;;5097876;28;20197;-71
2021/12/15 08:25:21;;;;;;;2.77;1.80;;;6.80;91.00;6.10;99753.00;;;;5115705;28;20229;-72
2021/12/15 08:27:51;;;;;;;1.30;1.30;;;;;6.10;99760.00;;;;5115797;28;20204;-72
2021/12/15 08:30:22;;;;;;;1.43;1.40;;;6.80;90.20;6.10;99775.00;;;;5115801;28;20222;-72
2021/12/15 08:32:53;;;;;;;1.57;1.47;;;6.80;90.70;6.10;99772.00;;;;5115720;28;20269;-72
2021/12/15 08:35:23;;;;;;;2.97;1.93;;;6.90;90.90;6.10;99771.00;;;;5115609;28;20197;-73
2021/12/15 08:37:53;;;;;;;1.80;1.70;;;6.80;90.70;6.10;99771.00;;;;5115461;28;20205;-73
2021/12/15 08:40:23;;;;;;;1.97;1.87;;;6.90;91.60;6.10;99770.00;;;;5115467;28;20200;-72
2021/12/15 08:42:50;;;;;;;1.40;1.40;;;6.90;90.90;6.20;99770.00;;;;5115275;28;20324;-73
2021/12/15 08:45:17;;;;;;;1.83;1.73;;;7.00;90.80;6.30;99774.00;;;;5097547;28;20206;-73
2021/12/15 08:47:44;;;;;;;1.90;1.80;;;7.00;90.60;6.30;99766.00;;;;5115236;28;20306;-72
2021/12/15 08:50:17;;;;;;;2.43;2.30;;;7.00;90.20;6.30;99778.00;;;;5115301;28;20331;-72
2021/12/15 08:52:44;;;;;;;1.67;1.57;;;7.00;90.20;6.30;99771.00;;;;5115287;28;20244;-71
2021/12/15 08:55:13;;;;;;;2.33;1.63;;;7.00;90.20;6.20;99759.00;;;;5115232;28;20225;-71
2021/12/15 08:57:48;;;;;;;1.00;1.00;;;7.00;89.80;6.20;99770.00;;;;5115324;28;20255;-72
2021/12/15 09:00:18;;;;;;;2.83;2.17;;;7.00;88.90;6.10;99772.00;;;;5097306;28;20663;-74
2021/12/15 09:02:48;;;;;;;1.57;1.47;;;7.00;88.40;6.20;99765.00;;;;5115274;28;20300;-71
2021/12/15 09:05:20;;;;;;;1.43;1.37;;;7.00;89.70;6.30;99769.00;;;;5097052;28;20267;-73
2021/12/15 09:07:49;;;;;;;2.33;2.13;;;7.00;89.10;6.30;99769.00;;;;5115063;28;20232;-71
2021/12/15 09:10:17;;;;;;;1.60;1.50;;;7.10;88.90;6.20;99760.00;;;;5114980;28;20229;-70
2021/12/15 09:12:43;;;;;;;1.83;1.73;;;7.00;88.50;6.40;99765.00;;;;5115080;28;20202;-71
2021/12/15 09:15:12;;;;;;;2.73;1.40;;;7.10;87.80;6.20;99767.00;;;;5114929;28;20225;-71
2021/12/15 09:17:40;;;;;;;1.27;1.27;;;7.00;87.10;6.30;99768.00;;;;5114955;28;20185;-70
2021/12/15 09:20:09;;;;;;;2.37;1.57;;;7.10;88.20;6.40;99785.00;;;;5114786;28;20578;-70
2021/12/15 09:22:38;;;;;;;1.47;1.47;;;7.10;87.00;6.50;99760.00;;;;5114642;28;20240;-72
2021/12/15 09:25:06;;;;;;;0.97;0.97;;;7.20;86.50;6.50;99786.00;;;;5114854;28;20233;-71
2021/12/15 09:27:32;;;;;;;1.03;0.93;;;7.20;86.20;6.50;99790.00;;;;5096718;28;20228;-72
2021/12/15 09:30:03;;;;;;;2.03;1.93;;;7.20;86.10;6.50;99788.00;;;;5096879;28;20293;-71
2021/12/15 09:32:29;;;;;;;1.07;1.07;;;7.30;85.80;6.50;99788.00;;;;5114723;28;20209;-72
2021/12/15 09:34:56;;;;;;;1.10;1.10;;;7.30;85.40;6.40;99794.00;;;;5114693;28;20229;-72
2021/12/15 09:37:23;;;;;;;1.70;1.60;;;7.30;85.10;6.50;99791.00;;;;5114617;28;20197;-71
2021/12/15 09:39:51;;;;;;;1.77;1.67;;;7.20;84.80;6.40;99790.00;;;;5114573;28;20202;-71
2021/12/15 09:42:22;;;;;;;1.63;1.53;;;7.30;84.20;6.40;99794.00;;;;5114438;28;20210;-71
2021/12/15 09:44:53;;;;;;;2.10;1.93;;;7.20;84.40;6.50;99794.00;;;;5114520;28;20261;-72
2021/12/15 09:47:37;;;;;;;0.60;0.60;;;7.20;83.60;6.50;99790.00;;;;5114407;28;20224;-71
2021/12/15 10:04:22;;;;;;;1.70;1.60;;;7.30;81.60;6.50;99765.00;;;;5114296;28;20215;-72
2021/12/15 10:07:15;;;;;;;1.47;1.43;;;7.30;81.90;6.70;99796.00;;;;5114042;28;20234;-72
2021/12/15 10:17:22;;;;;;;1.87;1.77;;;7.40;81.60;6.60;99792.00;;;;5114076;28;20229;-70
2021/12/15 10:18:13;;;;;;;0.90;0.90;;;7.50;81.30;6.60;99791.00;;;;5114074;28;20217;-71
2021/12/15 10:20:40;;;;;;;1.23;1.23;;;7.40;81.00;6.70;99789.00;;;;5114279;28;20193;-71
2021/12/15 10:23:12;;;;;;;1.73;1.07;;;7.50;80.60;6.70;99794.00;;;;5116608;28;20193;-72
2021/12/15 10:25:47;;;;;;;1.13;1.13;;;7.40;80.20;6.70;99788.00;;;;5117356;28;20228;-71
2021/12/15 10:28:18;;;;;;;0.90;0.90;;;7.50;80.10;6.80;99797.00;;;;5117549;28;20225;-70
2021/12/15 10:30:51;;;;;;;0.97;0.97;;;7.50;79.80;6.70;99793.00;;;;5117461;28;20590;-71
2021/12/15 10:33:24;;;;;;;1.90;1.80;;;7.50;79.50;6.70;99792.00;;;;5117484;28;20296;-71
2021/12/15 10:35:54;;;;;;;0.77;0.77;;;7.40;78.90;6.70;99785.00;;;;5117555;28;20198;-73
2021/12/15 10:38:28;;;;;;;0.90;0.90;;;7.40;78.90;6.60;99787.00;;;;5117382;28;20358;-71
2021/12/15 10:41:07;;;;;;;1.03;0.83;;;7.30;79.10;6.80;99790.00;;;;5099512;28;20540;-71
2021/12/15 10:43:40;;;;;;;0.70;0.70;;;7.50;78.00;6.80;99785.00;;;;5116959;28;20218;-71
2021/12/15 10:46:10;;;;;;;0.83;0.83;;;7.50;77.50;6.70;99788.00;;;;5117185;28;20213;-71
2021/12/15 10:48:50;;;;;;;0.90;0.90;;;7.50;77.60;6.70;99773.00;;;;5099439;28;20621;-72
2021/12/15 10:51:36;;;;;;;1.20;1.20;;;7.40;77.00;6.50;99785.00;;;;5117071;28;20312;-71
2021/12/15 10:54:10;;;;;;;1.13;1.07;;;7.40;77.10;6.50;99777.00;;;;5117320;28;20204;-72
2021/12/15 10:56:49;;;;;;;1.17;1.07;;;7.30;77.80;6.50;99766.00;;;;5117068;28;20288;-71
2021/12/15 10:59:19;;;;;;;2.53;1.83;;;7.30;78.30;6.50;99777.00;;;;5117236;28;20205;-72
2021/12/15 11:01:57;;;;;;;1.00;1.00;;;7.30;78.60;6.60;99770.00;;;;5099161;28;20301;-71
2021/12/15 11:04:42;;;;;;;0.90;0.90;;;7.30;79.10;6.60;99774.00;;;;5116924;28;20200;-70
2021/12/15 11:07:26;;;;;;;0.83;0.83;;;7.40;78.60;6.60;99778.00;;;;5116795;28;20222;-71
2021/12/15 11:09:58;;;;;;;0.87;0.87;;;7.40;78.60;6.60;99776.00;;;;5116978;28;20258;-71
2021/12/15 11:12:30;;;;;;;1.00;1.00;;;7.40;78.20;6.60;99771.00;;;;5117144;28;20316;-70
2021/12/15 11:15:01;;;;;;;1.00;1.00;;;7.40;78.80;6.70;99767.00;;;;5098862;28;20224;-72
2021/12/15 11:17:30;;;;;;;1.37;1.30;;;7.40;78.10;6.70;99754.00;;;;5115839;28;20285;-71
2021/12/15 11:20:06;;;;;;;0.67;0.67;;;7.50;77.50;6.70;99773.00;;;;5116708;28;20212;-71
2021/12/15 11:23:00;;;;;;;1.23;1.17;;;7.50;77.50;6.80;99778.00;;;;5116547;28;20213;-71
2021/12/15 11:25:39;;;;;;;0.77;0.77;;;7.50;77.40;6.60;99763.00;;;;5116381;28;20206;-74
2021/12/15 11:28:12;;;;;;;0.70;0.70;;;7.40;77.10;6.60;99761.00;;;;5098366;28;20301;-73
2021/12/15 11:30:49;;;;;;;1.87;1.77;;;7.40;77.20;6.70;99760.00;;;;5116366;28;20200;-73
2021/12/15 11:33:20;;;;;;;1.50;1.40;;;7.40;77.40;6.60;99754.00;;;;5115368;28;20201;-72
2021/12/15 11:35:51;;;;;;;0.83;0.83;;;7.40;76.90;6.60;99751.00;;;;5116457;28;20199;-73
2021/12/15 11:38:22;;;;;;;0.77;0.77;;;7.40;77.20;6.60;99755.00;;;;5116479;28;20229;-71
2021/12/15 11:41:09;;;;;;;0.70;0.70;;;7.40;76.70;6.60;99749.00;;;;5116485;28;20249;-72
2021/12/15 11:43:44;;;;;;;0.73;0.73;;;7.40;77.10;6.60;99741.00;;;;5098518;28;20702;-71
2021/12/15 11:46:26;;;;;;;1.13;1.13;;;7.30;77.20;6.60;99750.00;;;;5098243;28;20241;-71
2021/12/15 11:48:58;;;;;;;1.50;0.87;;;7.30;77.40;6.60;99747.00;;;;5116426;28;20217;-72
2021/12/15 11:51:34;;;;;;;0.83;0.83;;;7.30;77.20;6.60;99746.00;;;;5116226;28;20286;-72
2021/12/15 11:54:03;;;;;;;0.80;0.80;;;7.30;77.00;6.60;99741.00;;;;5098357;28;20296;-71
2021/12/15 11:56:34;;;;;;;1.17;1.13;;;7.40;76.60;6.70;99738.00;;;;5116163;28;20292;-73
2021/12/15 11:59:20;;;;;;;0.83;0.83;;;7.40;76.40;6.60;99740.00;;;;5116173;28;20675;-72
2021/12/15 12:02:01;;;;;;;2.90;1.07;;;7.40;75.90;6.50;99730.00;;;;5098227;28;20201;-70
2021/12/15 12:04:36;;;;;;;0.70;0.70;;;7.30;75.80;6.50;99740.00;;;;5116303;28;20204;-71
2021/12/15 12:07:23;;;;;;;1.23;1.23;;;7.30;76.20;6.40;99722.00;;;;5115973;28;20243;-72
2021/12/15 12:09:55;;;;;;;0.70;0.70;;;7.20;76.90;6.30;99732.00;;;;5116214;28;20182;-74
2021/12/15 12:12:28;;;;;;;1.37;1.13;;;7.20;75.80;6.40;99740.00;;;;5115915;28;20221;-73
2021/12/15 12:14:55;;;;;;;1.03;1.03;;;7.10;76.40;6.50;99732.00;;;;5115967;28;20209;-71
2021/12/15 12:17:34;;;;;;;0.77;0.77;;;7.20;76.30;6.50;99733.00;;;;5115806;28;20605;-72
2021/12/15 12:20:06;;;;;;;0.60;0.60;;;7.20;76.30;6.60;99727.00;;;;5115739;28;20254;-71
2021/12/15 12:22:35;;;;;;;1.67;1.07;;;7.30;76.00;6.50;99717.00;;;;5115822;28;20232;-72
2021/12/15 12:25:08;;;;;;;0.83;0.83;;;7.30;75.70;6.50;99726.00;;;;5115639;28;20570;-72